F/V Liberty-s — FHKM — position and weather

sailwx.info

Track history (hours):
 
Tides and Currents Weather Stations Pressure Air Temp Water Temp Dewpoint Dewpoint Depression Visibility Wind Speed Wind Dir Waves Ship Positions

F/V Liberty-s

Last reported at 2017-Sep-19 07:28 UTC. Time now 2017-Sep-19 11:47 UTC.
Position N 47°12' W 003°54'.

Type: Fishing. MMSI: 228387000.

Date/timePositionNaut miles runAvg speedWind from/ knotsBaromVisibWave heightAir tempDewpointWater temp
2017-Sep-19 07:28N 47°12' W 003°54'3 3.6
2017-Sep-19 06:39N 47°14' W 003°50'1 3.5
2017-Sep-19 06:29N 47°14' W 003°50'7 0.8
2017-Sep-18 22:05N 47°09' W 003°58'0 2.9
2017-Sep-18 21:59N 47°09' W 003°57'2 2.8
2017-Sep-18 21:25N 47°10' W 003°55'2 3.1
2017-Sep-18 20:42N 47°12' W 003°54'1 3.4
2017-Sep-18 20:22N 47°13' W 003°53'2 3.3
2017-Sep-18 19:42N 47°14' W 003°50'1 3.3
2017-Sep-18 19:30N 47°14' W 003°49'2 2.9
2017-Sep-18 18:58N 47°14' W 003°47'2 1.2
2017-Sep-18 17:15N 47°14' W 003°50'0 1.1
2017-Sep-18 16:58N 47°14' W 003°51'1 3.1
2017-Sep-18 16:30N 47°13' W 003°53'1 2.9
2017-Sep-18 16:00N 47°12' W 003°54'1 2.8
2017-Sep-18 15:30N 47°11' W 003°54'1 2.9
2017-Sep-18 15:00N 47°09' W 003°53'1 2.9
2017-Sep-18 14:30N 47°08' W 003°53'4 2.8
2017-Sep-18 13:06N 47°09' W 003°58'1 5.2
2017-Sep-18 12:58N 47°09' W 003°58'2 2.1
2017-Sep-18 12:11N 47°08' W 003°56'1 3.2
2017-Sep-18 12:00N 47°08' W 003°56'2 0.9
2017-Sep-18 09:53N 47°07' W 003°58'1 3.2
2017-Sep-18 09:28N 47°07' W 003°56'2 3.3
2017-Sep-18 09:00N 47°07' W 003°54'2 2.4
2017-Sep-18 08:22N 47°08' W 003°52'2 3.2
2017-Sep-18 07:52N 47°10' W 003°54'1 3.3
2017-Sep-18 07:30N 47°11' W 003°54'2 3.4
2017-Sep-18 06:59N 47°13' W 003°53'2 3.2
2017-Sep-18 06:27N 47°15' W 003°54'4 3.4
2017-Sep-18 05:22N 47°18' W 003°55'1 3.6
2017-Sep-18 04:58N 47°19' W 003°54'2 5.3
2017-Sep-18 04:30N 47°22' W 003°54'4 7.9
2017-Sep-18 03:57N 47°26' W 003°54'4 7.6
2017-Sep-18 03:26N 47°30' W 003°54'3 7.8
2017-Sep-18 03:00N 47°34' W 003°54'4 7.5
2017-Sep-18 02:28N 47°38' W 003°54'14 4.1
2017-Sep-17 22:58N 47°52' W 003°55'3 7.6
2017-Sep-17 22:30N 47°48' W 003°56'4 8.0
2017-Sep-17 22:00N 47°45' W 003°55'4 8.2
2017-Sep-17 21:30N 47°41' W 003°54'5 7.9
2017-Sep-17 20:55N 47°36' W 003°54'3 7.6
2017-Sep-17 20:30N 47°33' W 003°54'4 7.7
2017-Sep-17 20:00N 47°29' W 003°54'1 1.5
2017-Sep-17 19:30N 47°28' W 003°54'5 3.3
2017-Sep-17 17:52N 47°31' W 004°00'2 1.2
2017-Sep-17 16:17N 47°33' W 003°60'1 3.3
2017-Sep-17 16:00N 47°33' W 003°59'2 3.2
2017-Sep-17 15:30N 47°32' W 003°57'1 2.9
2017-Sep-17 15:00N 47°31' W 003°55'2 3.2
2017-Sep-17 14:30N 47°29' W 003°55'  
2017-Sep-14 23:14N 47°14' W 003°57'  
Track history (hours):
 
Tides and Currents Weather Stations Pressure Air Temp Water Temp Dewpoint Dewpoint Depression Visibility Wind Speed Wind Dir Waves Ship Positions

F/V Liberty-s

Last reported at 2017-Sep-19 07:28 UTC. Time now 2017-Sep-19 11:47 UTC.
Position N 47°12' W 003°54'.

Type: Fishing. MMSI: 228387000.

Date/timePositionNaut miles runAvg speedWind from/ knotsBaromVisibWave heightAir tempDewpointWater temp
2017-Sep-19 07:28N 47°12' W 003°54'3 3.6
2017-Sep-19 06:39N 47°14' W 003°50'1 3.5
2017-Sep-19 06:29N 47°14' W 003°50'7 0.8
2017-Sep-18 22:05N 47°09' W 003°58'0 2.9
2017-Sep-18 21:59N 47°09' W 003°57'2 2.8
2017-Sep-18 21:25N 47°10' W 003°55'2 3.1
2017-Sep-18 20:42N 47°12' W 003°54'1 3.4
2017-Sep-18 20:22N 47°13' W 003°53'2 3.3
2017-Sep-18 19:42N 47°14' W 003°50'1 3.3
2017-Sep-18 19:30N 47°14' W 003°49'2 2.9
2017-Sep-18 18:58N 47°14' W 003°47'2 1.2
2017-Sep-18 17:15N 47°14' W 003°50'0 1.1
2017-Sep-18 16:58N 47°14' W 003°51'1 3.1
2017-Sep-18 16:30N 47°13' W 003°53'1 2.9
2017-Sep-18 16:00N 47°12' W 003°54'1 2.8
2017-Sep-18 15:30N 47°11' W 003°54'1 2.9
2017-Sep-18 15:00N 47°09' W 003°53'1 2.9
2017-Sep-18 14:30N 47°08' W 003°53'4 2.8
2017-Sep-18 13:06N 47°09' W 003°58'1 5.2
2017-Sep-18 12:58N 47°09' W 003°58'2 2.1
2017-Sep-18 12:11N 47°08' W 003°56'1 3.2
2017-Sep-18 12:00N 47°08' W 003°56'2 0.9
2017-Sep-18 09:53N 47°07' W 003°58'1 3.2
2017-Sep-18 09:28N 47°07' W 003°56'2 3.3
2017-Sep-18 09:00N 47°07' W 003°54'2 2.4
2017-Sep-18 08:22N 47°08' W 003°52'2 3.2
2017-Sep-18 07:52N 47°10' W 003°54'1 3.3
2017-Sep-18 07:30N 47°11' W 003°54'2 3.4
2017-Sep-18 06:59N 47°13' W 003°53'2 3.2
2017-Sep-18 06:27N 47°15' W 003°54'4 3.4
2017-Sep-18 05:22N 47°18' W 003°55'1 3.6
2017-Sep-18 04:58N 47°19' W 003°54'2 5.3
2017-Sep-18 04:30N 47°22' W 003°54'4 7.9
2017-Sep-18 03:57N 47°26' W 003°54'4 7.6
2017-Sep-18 03:26N 47°30' W 003°54'3 7.8
2017-Sep-18 03:00N 47°34' W 003°54'4 7.5
2017-Sep-18 02:28N 47°38' W 003°54'14 4.1
2017-Sep-17 22:58N 47°52' W 003°55'3 7.6
2017-Sep-17 22:30N 47°48' W 003°56'4 8.0
2017-Sep-17 22:00N 47°45' W 003°55'4 8.2
2017-Sep-17 21:30N 47°41' W 003°54'5 7.9
2017-Sep-17 20:55N 47°36' W 003°54'3 7.6
2017-Sep-17 20:30N 47°33' W 003°54'4 7.7
2017-Sep-17 20:00N 47°29' W 003°54'1 1.5
2017-Sep-17 19:30N 47°28' W 003°54'5 3.3
2017-Sep-17 17:52N 47°31' W 004°00'2 1.2
2017-Sep-17 16:17N 47°33' W 003°60'1 3.3
2017-Sep-17 16:00N 47°33' W 003°59'2 3.2
2017-Sep-17 15:30N 47°32' W 003°57'1 2.9
2017-Sep-17 15:00N 47°31' W 003°55'2 3.2
2017-Sep-17 14:30N 47°29' W 003°55'  
2017-Sep-14 23:14N 47°14' W 003°57'  

Dump ship's entire track history